sensor_id;sensor_type;location;lat;lon;timestamp;P1;durP1;ratioP1;P2;durP2;ratioP2
25497;SDS011;13406;53.380;7.226;2023-04-03T00:02:21;2.33;;;0.90;;
25497;SDS011;13406;53.380;7.226;2023-04-03T00:04:46;3.87;;;0.93;;
25497;SDS011;13406;53.380;7.226;2023-04-03T00:07:11;1.37;;;0.87;;
25497;SDS011;13406;53.380;7.226;2023-04-03T00:09:37;2.80;;;0.87;;
25497;SDS011;13406;53.380;7.226;2023-04-03T00:12:02;2.17;;;0.90;;
25497;SDS011;13406;53.380;7.226;2023-04-03T00:14:28;2.30;;;0.80;;
25497;SDS011;13406;53.380;7.226;2023-04-03T00:16:53;2.60;;;0.90;;
25497;SDS011;13406;53.380;7.226;2023-04-03T00:19:18;4.07;;;0.90;;
25497;SDS011;13406;53.380;7.226;2023-04-03T00:21:44;2.90;;;0.90;;
25497;SDS011;13406;53.380;7.226;2023-04-03T00:24:10;3.00;;;1.10;;
25497;SDS011;13406;53.380;7.226;2023-04-03T00:26:35;6.50;;;0.90;;
25497;SDS011;13406;53.380;7.226;2023-04-03T00:29:00;2.30;;;0.93;;
25497;SDS011;13406;53.380;7.226;2023-04-03T00:31:25;1.50;;;0.90;;
25497;SDS011;13406;53.380;7.226;2023-04-03T00:33:51;1.53;;;0.93;;
25497;SDS011;13406;53.380;7.226;2023-04-03T00:36:16;1.90;;;0.90;;
25497;SDS011;13406;53.380;7.226;2023-04-03T00:38:41;3.50;;;1.07;;
25497;SDS011;13406;53.380;7.226;2023-04-03T00:41:07;1.73;;;0.87;;
25497;SDS011;13406;53.380;7.226;2023-04-03T00:43:32;3.60;;;1.30;;
25497;SDS011;13406;53.380;7.226;2023-04-03T00:45:58;2.67;;;1.37;;
25497;SDS011;13406;53.380;7.226;2023-04-03T00:48:34;3.70;;;0.90;;
25497;SDS011;13406;53.380;7.226;2023-04-03T00:51:01;3.80;;;1.23;;
25497;SDS011;13406;53.380;7.226;2023-04-03T00:53:30;1.87;;;0.93;;
25497;SDS011;13406;53.380;7.226;2023-04-03T00:55:56;2.20;;;0.97;;
25497;SDS011;13406;53.380;7.226;2023-04-03T00:58:22;2.33;;;1.10;;
25497;SDS011;13406;53.380;7.226;2023-04-03T01:00:52;1.40;;;0.80;;
25497;SDS011;13406;53.380;7.226;2023-04-03T01:03:22;1.30;;;1.10;;
25497;SDS011;13406;53.380;7.226;2023-04-03T01:05:47;2.43;;;0.80;;
25497;SDS011;13406;53.380;7.226;2023-04-03T01:08:13;1.93;;;1.00;;
25497;SDS011;13406;53.380;7.226;2023-04-03T01:10:38;10.80;;;1.90;;
25497;SDS011;13406;53.380;7.226;2023-04-03T01:13:16;2.50;;;1.17;;
25497;SDS011;13406;53.380;7.226;2023-04-03T01:15:42;2.27;;;1.00;;
25497;SDS011;13406;53.380;7.226;2023-04-03T01:18:09;1.90;;;1.10;;
25497;SDS011;13406;53.380;7.226;2023-04-03T01:20:36;1.80;;;1.13;;
25497;SDS011;13406;53.380;7.226;2023-04-03T01:25:34;2.40;;;1.10;;
25497;SDS011;13406;53.380;7.226;2023-04-03T01:28:00;3.70;;;1.20;;
25497;SDS011;13406;53.380;7.226;2023-04-03T01:30:28;1.97;;;1.43;;
25497;SDS011;13406;53.380;7.226;2023-04-03T01:32:55;2.73;;;1.00;;
25497;SDS011;13406;53.380;7.226;2023-04-03T01:35:20;3.90;;;1.33;;
25497;SDS011;13406;53.380;7.226;2023-04-03T01:37:46;3.30;;;1.83;;
25497;SDS011;13406;53.380;7.226;2023-04-03T01:40:11;1.60;;;1.03;;
25497;SDS011;13406;53.380;7.226;2023-04-03T01:42:36;3.40;;;1.23;;
25497;SDS011;13406;53.380;7.226;2023-04-03T01:45:02;1.97;;;1.30;;
25497;SDS011;13406;53.380;7.226;2023-04-03T01:47:27;4.80;;;1.13;;
25497;SDS011;13406;53.380;7.226;2023-04-03T01:49:52;3.40;;;1.30;;
25497;SDS011;13406;53.380;7.226;2023-04-03T01:52:17;3.40;;;1.40;;
25497;SDS011;13406;53.380;7.226;2023-04-03T01:54:43;3.93;;;1.37;;
25497;SDS011;13406;53.380;7.226;2023-04-03T01:57:08;4.20;;;1.30;;
25497;SDS011;13406;53.380;7.226;2023-04-03T01:59:33;2.67;;;1.00;;
25497;SDS011;13406;53.380;7.226;2023-04-03T02:01:59;1.90;;;1.20;;
25497;SDS011;13406;53.380;7.226;2023-04-03T02:04:24;3.10;;;0.90;;
25497;SDS011;13406;53.380;7.226;2023-04-03T02:06:50;4.40;;;1.60;;
25497;SDS011;13406;53.380;7.226;2023-04-03T02:09:15;3.57;;;1.70;;
25497;SDS011;13406;53.380;7.226;2023-04-03T02:11:40;1.97;;;1.20;;
25497;SDS011;13406;53.380;7.226;2023-04-03T02:14:06;2.70;;;1.07;;
25497;SDS011;13406;53.380;7.226;2023-04-03T02:16:31;2.40;;;1.10;;
25497;SDS011;13406;53.380;7.226;2023-04-03T02:18:56;1.83;;;1.30;;
25497;SDS011;13406;53.380;7.226;2023-04-03T02:21:22;2.03;;;1.33;;
25497;SDS011;13406;53.380;7.226;2023-04-03T02:23:47;2.17;;;1.10;;
25497;SDS011;13406;53.380;7.226;2023-04-03T02:26:13;2.10;;;1.07;;
25497;SDS011;13406;53.380;7.226;2023-04-03T02:28:38;5.00;;;1.63;;
25497;SDS011;13406;53.380;7.226;2023-04-03T02:31:05;2.60;;;1.30;;
25497;SDS011;13406;53.380;7.226;2023-04-03T02:33:31;2.13;;;1.67;;
25497;SDS011;13406;53.380;7.226;2023-04-03T02:35:57;4.47;;;1.67;;
25497;SDS011;13406;53.380;7.226;2023-04-03T02:38:23;4.40;;;1.90;;
25497;SDS011;13406;53.380;7.226;2023-04-03T02:40:48;10.10;;;1.63;;
25497;SDS011;13406;53.380;7.226;2023-04-03T02:43:13;6.70;;;1.40;;
25497;SDS011;13406;53.380;7.226;2023-04-03T02:45:39;1.93;;;1.07;;
25497;SDS011;13406;53.380;7.226;2023-04-03T02:48:04;2.77;;;1.50;;
25497;SDS011;13406;53.380;7.226;2023-04-03T02:50:30;3.60;;;1.47;;
25497;SDS011;13406;53.380;7.226;2023-04-03T02:52:55;3.63;;;1.50;;
25497;SDS011;13406;53.380;7.226;2023-04-03T02:55:20;4.87;;;1.30;;
25497;SDS011;13406;53.380;7.226;2023-04-03T02:57:45;2.60;;;1.60;;
25497;SDS011;13406;53.380;7.226;2023-04-03T03:00:11;2.30;;;1.27;;
25497;SDS011;13406;53.380;7.226;2023-04-03T03:02:36;4.47;;;1.40;;
25497;SDS011;13406;53.380;7.226;2023-04-03T03:05:01;4.40;;;1.30;;
25497;SDS011;13406;53.380;7.226;2023-04-03T03:07:27;3.53;;;1.17;;
25497;SDS011;13406;53.380;7.226;2023-04-03T03:09:52;4.40;;;1.40;;
25497;SDS011;13406;53.380;7.226;2023-04-03T03:12:17;2.90;;;1.20;;
25497;SDS011;13406;53.380;7.226;2023-04-03T03:14:47;2.27;;;1.57;;
25497;SDS011;13406;53.380;7.226;2023-04-03T03:17:12;5.13;;;1.40;;
25497;SDS011;13406;53.380;7.226;2023-04-03T03:19:37;3.37;;;1.60;;
25497;SDS011;13406;53.380;7.226;2023-04-03T03:22:02;2.93;;;1.10;;
25497;SDS011;13406;53.380;7.226;2023-04-03T03:24:28;4.87;;;1.90;;
25497;SDS011;13406;53.380;7.226;2023-04-03T03:26:53;2.00;;;0.97;;
25497;SDS011;13406;53.380;7.226;2023-04-03T03:29:18;3.43;;;1.50;;
25497;SDS011;13406;53.380;7.226;2023-04-03T03:31:44;2.80;;;1.60;;
25497;SDS011;13406;53.380;7.226;2023-04-03T03:34:09;2.03;;;1.40;;
25497;SDS011;13406;53.380;7.226;2023-04-03T03:36:34;2.70;;;1.50;;
25497;SDS011;13406;53.380;7.226;2023-04-03T03:39:00;1.93;;;1.30;;
25497;SDS011;13406;53.380;7.226;2023-04-03T03:41:25;6.13;;;2.03;;
25497;SDS011;13406;53.380;7.226;2023-04-03T03:43:51;4.83;;;1.80;;
25497;SDS011;13406;53.380;7.226;2023-04-03T03:46:16;4.30;;;1.70;;
25497;SDS011;13406;53.380;7.226;2023-04-03T03:48:41;2.70;;;1.60;;
25497;SDS011;13406;53.380;7.226;2023-04-03T03:51:07;4.00;;;1.57;;
25497;SDS011;13406;53.380;7.226;2023-04-03T03:53:32;2.70;;;1.30;;
25497;SDS011;13406;53.380;7.226;2023-04-03T03:55:57;2.50;;;1.40;;
25497;SDS011;13406;53.380;7.226;2023-04-03T03:58:22;3.73;;;1.63;;
25497;SDS011;13406;53.380;7.226;2023-04-03T04:00:48;5.70;;;1.70;;
25497;SDS011;13406;53.380;7.226;2023-04-03T04:03:13;5.13;;;1.60;;
25497;SDS011;13406;53.380;7.226;2023-04-03T04:05:38;3.73;;;1.80;;
25497;SDS011;13406;53.380;7.226;2023-04-03T04:08:04;3.00;;;1.53;;
25497;SDS011;13406;53.380;7.226;2023-04-03T04:10:30;3.33;;;1.57;;
25497;SDS011;13406;53.380;7.226;2023-04-03T04:12:56;2.33;;;1.70;;
25497;SDS011;13406;53.380;7.226;2023-04-03T04:15:21;4.73;;;1.40;;
25497;SDS011;13406;53.380;7.226;2023-04-03T04:17:46;2.67;;;1.70;;
25497;SDS011;13406;53.380;7.226;2023-04-03T04:20:12;3.60;;;1.57;;
25497;SDS011;13406;53.380;7.226;2023-04-03T04:22:37;3.57;;;1.90;;
25497;SDS011;13406;53.380;7.226;2023-04-03T04:25:04;5.03;;;1.90;;
25497;SDS011;13406;53.380;7.226;2023-04-03T04:27:29;8.43;;;1.77;;
25497;SDS011;13406;53.380;7.226;2023-04-03T04:29:55;3.20;;;1.80;;
25497;SDS011;13406;53.380;7.226;2023-04-03T04:32:20;5.90;;;1.90;;
25497;SDS011;13406;53.380;7.226;2023-04-03T04:34:45;4.50;;;1.70;;
25497;SDS011;13406;53.380;7.226;2023-04-03T04:37:10;3.07;;;1.43;;
25497;SDS011;13406;53.380;7.226;2023-04-03T04:39:36;4.30;;;2.30;;
25497;SDS011;13406;53.380;7.226;2023-04-03T04:42:01;5.20;;;2.17;;
25497;SDS011;13406;53.380;7.226;2023-04-03T04:44:26;3.67;;;1.80;;
25497;SDS011;13406;53.380;7.226;2023-04-03T04:46:52;4.90;;;2.30;;
25497;SDS011;13406;53.380;7.226;2023-04-03T04:49:17;4.83;;;2.17;;
25497;SDS011;13406;53.380;7.226;2023-04-03T04:51:42;3.70;;;2.10;;
25497;SDS011;13406;53.380;7.226;2023-04-03T04:54:08;4.17;;;2.13;;
25497;SDS011;13406;53.380;7.226;2023-04-03T04:56:33;4.80;;;2.33;;
25497;SDS011;13406;53.380;7.226;2023-04-03T04:58:58;5.27;;;2.33;;
25497;SDS011;13406;53.380;7.226;2023-04-03T05:01:23;5.50;;;2.30;;
25497;SDS011;13406;53.380;7.226;2023-04-03T05:03:49;5.30;;;2.30;;
25497;SDS011;13406;53.380;7.226;2023-04-03T05:06:14;3.60;;;1.93;;
25497;SDS011;13406;53.380;7.226;2023-04-03T05:08:40;4.67;;;2.40;;
25497;SDS011;13406;53.380;7.226;2023-04-03T05:11:05;4.60;;;2.13;;
25497;SDS011;13406;53.380;7.226;2023-04-03T05:13:30;2.87;;;1.90;;
25497;SDS011;13406;53.380;7.226;2023-04-03T05:15:56;4.53;;;2.03;;
25497;SDS011;13406;53.380;7.226;2023-04-03T05:18:21;4.23;;;2.33;;
25497;SDS011;13406;53.380;7.226;2023-04-03T05:20:48;4.63;;;2.30;;
25497;SDS011;13406;53.380;7.226;2023-04-03T05:23:13;7.60;;;2.83;;
25497;SDS011;13406;53.380;7.226;2023-04-03T05:25:38;5.03;;;2.30;;
25497;SDS011;13406;53.380;7.226;2023-04-03T05:28:04;4.90;;;2.40;;
25497;SDS011;13406;53.380;7.226;2023-04-03T05:30:29;6.30;;;2.80;;
25497;SDS011;13406;53.380;7.226;2023-04-03T05:32:54;5.10;;;2.40;;
25497;SDS011;13406;53.380;7.226;2023-04-03T05:35:20;4.87;;;2.57;;
25497;SDS011;13406;53.380;7.226;2023-04-03T05:37:46;8.80;;;3.50;;
25497;SDS011;13406;53.380;7.226;2023-04-03T05:40:11;6.50;;;3.03;;
25497;SDS011;13406;53.380;7.226;2023-04-03T05:42:36;6.40;;;2.70;;
25497;SDS011;13406;53.380;7.226;2023-04-03T05:45:02;6.40;;;3.03;;
25497;SDS011;13406;53.380;7.226;2023-04-03T05:47:27;6.03;;;2.43;;
25497;SDS011;13406;53.380;7.226;2023-04-03T05:49:52;3.90;;;2.20;;
25497;SDS011;13406;53.380;7.226;2023-04-03T05:54:43;6.03;;;2.63;;
25497;SDS011;13406;53.380;7.226;2023-04-03T05:57:11;4.30;;;2.67;;
25497;SDS011;13406;53.380;7.226;2023-04-03T05:59:36;7.40;;;2.63;;
25497;SDS011;13406;53.380;7.226;2023-04-03T06:02:02;7.23;;;2.60;;
25497;SDS011;13406;53.380;7.226;2023-04-03T06:04:28;4.43;;;2.43;;
25497;SDS011;13406;53.380;7.226;2023-04-03T06:06:54;5.80;;;2.60;;
25497;SDS011;13406;53.380;7.226;2023-04-03T06:09:20;6.63;;;2.60;;
25497;SDS011;13406;53.380;7.226;2023-04-03T06:11:46;4.10;;;2.60;;
25497;SDS011;13406;53.380;7.226;2023-04-03T06:14:11;7.10;;;3.20;;
25497;SDS011;13406;53.380;7.226;2023-04-03T06:16:37;4.20;;;2.10;;
25497;SDS011;13406;53.380;7.226;2023-04-03T06:19:03;3.50;;;2.00;;
25497;SDS011;13406;53.380;7.226;2023-04-03T06:21:29;5.40;;;2.83;;
25497;SDS011;13406;53.380;7.226;2023-04-03T06:23:55;8.73;;;3.10;;
25497;SDS011;13406;53.380;7.226;2023-04-03T06:26:20;6.53;;;2.80;;
25497;SDS011;13406;53.380;7.226;2023-04-03T06:28:46;2.83;;;2.07;;
25497;SDS011;13406;53.380;7.226;2023-04-03T06:31:11;6.20;;;2.60;;
25497;SDS011;13406;53.380;7.226;2023-04-03T06:33:36;3.80;;;2.63;;
25497;SDS011;13406;53.380;7.226;2023-04-03T06:36:03;5.30;;;2.87;;
25497;SDS011;13406;53.380;7.226;2023-04-03T06:38:29;5.80;;;3.87;;
25497;SDS011;13406;53.380;7.226;2023-04-03T06:40:54;12.70;;;2.97;;
25497;SDS011;13406;53.380;7.226;2023-04-03T06:43:21;4.60;;;2.60;;
25497;SDS011;13406;53.380;7.226;2023-04-03T06:45:46;5.53;;;3.07;;
25497;SDS011;13406;53.380;7.226;2023-04-03T06:48:12;4.20;;;2.40;;
25497;SDS011;13406;53.380;7.226;2023-04-03T06:50:37;5.87;;;3.00;;
25497;SDS011;13406;53.380;7.226;2023-04-03T06:53:02;5.00;;;2.70;;
25497;SDS011;13406;53.380;7.226;2023-04-03T06:55:28;6.27;;;2.10;;
25497;SDS011;13406;53.380;7.226;2023-04-03T06:57:54;4.50;;;2.50;;
25497;SDS011;13406;53.380;7.226;2023-04-03T07:00:20;5.43;;;2.63;;
25497;SDS011;13406;53.380;7.226;2023-04-03T07:02:46;7.10;;;2.47;;
25497;SDS011;13406;53.380;7.226;2023-04-03T07:05:11;5.90;;;2.83;;
25497;SDS011;13406;53.380;7.226;2023-04-03T07:07:37;3.30;;;2.00;;
25497;SDS011;13406;53.380;7.226;2023-04-03T07:10:03;5.17;;;2.27;;
25497;SDS011;13406;53.380;7.226;2023-04-03T07:12:28;3.30;;;1.80;;
25497;SDS011;13406;53.380;7.226;2023-04-03T07:14:53;3.70;;;1.87;;
25497;SDS011;13406;53.380;7.226;2023-04-03T07:17:19;3.90;;;1.93;;
25497;SDS011;13406;53.380;7.226;2023-04-03T07:19:44;6.30;;;3.33;;
25497;SDS011;13406;53.380;7.226;2023-04-03T07:22:09;6.70;;;2.70;;
25497;SDS011;13406;53.380;7.226;2023-04-03T07:24:36;9.00;;;1.90;;
25497;SDS011;13406;53.380;7.226;2023-04-03T07:27:01;6.17;;;1.80;;
25497;SDS011;13406;53.380;7.226;2023-04-03T07:29:27;3.30;;;1.70;;
25497;SDS011;13406;53.380;7.226;2023-04-03T07:31:53;4.83;;;1.47;;
25497;SDS011;13406;53.380;7.226;2023-04-03T07:34:20;5.13;;;1.87;;
25497;SDS011;13406;53.380;7.226;2023-04-03T07:36:45;3.13;;;1.70;;
25497;SDS011;13406;53.380;7.226;2023-04-03T07:39:11;3.67;;;1.57;;
25497;SDS011;13406;53.380;7.226;2023-04-03T07:41:36;6.60;;;1.83;;
25497;SDS011;13406;53.380;7.226;2023-04-03T07:44:01;3.60;;;1.80;;
25497;SDS011;13406;53.380;7.226;2023-04-03T07:46:27;4.23;;;1.63;;
25497;SDS011;13406;53.380;7.226;2023-04-03T07:48:52;4.00;;;1.73;;
25497;SDS011;13406;53.380;7.226;2023-04-03T07:51:18;5.80;;;2.03;;
25497;SDS011;13406;53.380;7.226;2023-04-03T07:53:43;3.50;;;1.40;;
25497;SDS011;13406;53.380;7.226;2023-04-03T07:56:09;3.13;;;1.50;;
25497;SDS011;13406;53.380;7.226;2023-04-03T07:58:34;3.67;;;1.30;;
25497;SDS011;13406;53.380;7.226;2023-04-03T08:01:00;4.30;;;1.47;;
25497;SDS011;13406;53.380;7.226;2023-04-03T08:03:25;4.07;;;1.60;;
25497;SDS011;13406;53.380;7.226;2023-04-03T08:05:51;3.37;;;1.30;;
25497;SDS011;13406;53.380;7.226;2023-04-03T08:08:20;3.43;;;1.53;;
25497;SDS011;13406;53.380;7.226;2023-04-03T08:10:52;4.67;;;1.53;;
25497;SDS011;13406;53.380;7.226;2023-04-03T08:13:18;2.07;;;0.93;;
25497;SDS011;13406;53.380;7.226;2023-04-03T08:15:43;2.63;;;1.27;;
25497;SDS011;13406;53.380;7.226;2023-04-03T08:18:08;3.30;;;1.23;;
25497;SDS011;13406;53.380;7.226;2023-04-03T08:20:34;2.50;;;1.10;;
25497;SDS011;13406;53.380;7.226;2023-04-03T08:22:59;2.20;;;1.10;;
25497;SDS011;13406;53.380;7.226;2023-04-03T08:25:25;3.20;;;1.03;;
25497;SDS011;13406;53.380;7.226;2023-04-03T08:27:51;2.37;;;1.03;;
25497;SDS011;13406;53.380;7.226;2023-04-03T08:30:16;2.03;;;1.13;;
25497;SDS011;13406;53.380;7.226;2023-04-03T08:32:41;2.60;;;1.00;;
25497;SDS011;13406;53.380;7.226;2023-04-03T08:35:08;3.90;;;1.33;;
25497;SDS011;13406;53.380;7.226;2023-04-03T08:37:37;2.50;;;0.90;;
25497;SDS011;13406;53.380;7.226;2023-04-03T08:40:05;1.97;;;1.30;;
25497;SDS011;13406;53.380;7.226;2023-04-03T08:50:11;2.23;;;0.97;;
25497;SDS011;13406;53.380;7.226;2023-04-03T08:52:38;2.03;;;1.03;;
25497;SDS011;13406;53.380;7.226;2023-04-03T08:55:06;2.20;;;1.03;;
25497;SDS011;13406;53.380;7.226;2023-04-03T08:57:33;1.90;;;0.90;;
25497;SDS011;13406;53.380;7.226;2023-04-03T09:00:01;2.70;;;0.90;;
25497;SDS011;13406;53.380;7.226;2023-04-03T09:02:49;1.53;;;0.90;;
25497;SDS011;13406;53.380;7.226;2023-04-03T09:05:20;3.10;;;1.00;;
25497;SDS011;13406;53.380;7.226;2023-04-03T09:07:57;2.93;;;1.00;;
25497;SDS011;13406;53.380;7.226;2023-04-03T09:10:27;1.47;;;0.90;;
25497;SDS011;13406;53.380;7.226;2023-04-03T09:12:56;2.30;;;1.03;;
25497;SDS011;13406;53.380;7.226;2023-04-03T09:15:24;1.30;;;0.80;;
25497;SDS011;13406;53.380;7.226;2023-04-03T09:18:03;8.87;;;1.50;;
25497;SDS011;13406;53.380;7.226;2023-04-03T09:23:13;1.57;;;0.80;;
25497;SDS011;13406;53.380;7.226;2023-04-03T09:25:39;27.53;;;3.10;;
25497;SDS011;13406;53.380;7.226;2023-04-03T09:28:05;34.97;;;3.43;;
25497;SDS011;13406;53.380;7.226;2023-04-03T09:30:34;6.63;;;1.80;;
25497;SDS011;13406;53.380;7.226;2023-04-03T09:33:00;15.57;;;2.13;;
25497;SDS011;13406;53.380;7.226;2023-04-03T09:35:27;5.20;;;1.43;;
25497;SDS011;13406;53.380;7.226;2023-04-03T09:37:54;3.27;;;0.93;;
25497;SDS011;13406;53.380;7.226;2023-04-03T09:42:51;57.80;;;4.33;;
25497;SDS011;13406;53.380;7.226;2023-04-03T09:45:31;9.03;;;1.90;;
25497;SDS011;13406;53.380;7.226;2023-04-03T09:50:37;6.67;;;2.03;;
25497;SDS011;13406;53.380;7.226;2023-04-03T09:53:06;1.83;;;0.80;;
25497;SDS011;13406;53.380;7.226;2023-04-03T09:55:32;4.30;;;0.93;;
25497;SDS011;13406;53.380;7.226;2023-04-03T09:58:02;1.93;;;0.80;;
25497;SDS011;13406;53.380;7.226;2023-04-03T10:00:33;1.70;;;0.90;;
25497;SDS011;13406;53.380;7.226;2023-04-03T10:02:58;0.70;;;0.70;;
25497;SDS011;13406;53.380;7.226;2023-04-03T10:05:35;3.03;;;1.00;;
25497;SDS011;13406;53.380;7.226;2023-04-03T10:10:38;1.30;;;0.90;;
25497;SDS011;13406;53.380;7.226;2023-04-03T10:13:04;2.30;;;1.13;;
25497;SDS011;13406;53.380;7.226;2023-04-03T10:15:30;5.93;;;2.00;;
25497;SDS011;13406;53.380;7.226;2023-04-03T10:18:00;1.33;;;0.83;;
25497;SDS011;13406;53.380;7.226;2023-04-03T10:23:03;8.50;;;1.47;;
25497;SDS011;13406;53.380;7.226;2023-04-03T10:28:19;2.17;;;1.47;;
25497;SDS011;13406;53.380;7.226;2023-04-03T10:33:34;2.40;;;0.70;;
25497;SDS011;13406;53.380;7.226;2023-04-03T10:36:17;2.00;;;0.77;;
25497;SDS011;13406;53.380;7.226;2023-04-03T10:46:41;1.20;;;0.77;;
25497;SDS011;13406;53.380;7.226;2023-04-03T10:51:48;1.60;;;0.87;;
25497;SDS011;13406;53.380;7.226;2023-04-03T10:54:26;1.60;;;0.80;;
25497;SDS011;13406;53.380;7.226;2023-04-03T10:56:53;1.60;;;0.70;;
25497;SDS011;13406;53.380;7.226;2023-04-03T10:59:23;0.80;;;0.70;;
25497;SDS011;13406;53.380;7.226;2023-04-03T11:01:58;2.33;;;0.90;;
25497;SDS011;13406;53.380;7.226;2023-04-03T11:04:25;2.33;;;0.97;;
25497;SDS011;13406;53.380;7.226;2023-04-03T11:06:55;1.13;;;0.77;;
25497;SDS011;13406;53.380;7.226;2023-04-03T11:11:49;1.37;;;0.70;;
25497;SDS011;13406;53.380;7.226;2023-04-03T11:14:27;4.00;;;1.00;;
25497;SDS011;13406;53.380;7.226;2023-04-03T11:17:18;1.50;;;0.80;;
25497;SDS011;13406;53.380;7.226;2023-04-03T11:24:39;1.20;;;0.80;;
25497;SDS011;13406;53.380;7.226;2023-04-03T11:27:08;2.30;;;0.80;;
25497;SDS011;13406;53.380;7.226;2023-04-03T11:29:38;1.03;;;0.70;;
25497;SDS011;13406;53.380;7.226;2023-04-03T11:34:44;5.20;;;3.40;;
25497;SDS011;13406;53.380;7.226;2023-04-03T11:37:17;2.47;;;1.67;;
25497;SDS011;13406;53.380;7.226;2023-04-03T11:39:48;1.13;;;1.03;;
25497;SDS011;13406;53.380;7.226;2023-04-03T11:44:49;2.03;;;0.73;;
25497;SDS011;13406;53.380;7.226;2023-04-03T11:47:43;2.60;;;1.00;;
25497;SDS011;13406;53.380;7.226;2023-04-03T11:50:01;2.90;;;2.00;;
25497;SDS011;13406;53.380;7.226;2023-04-03T12:03:29;1.43;;;0.80;;
25497;SDS011;13406;53.380;7.226;2023-04-03T12:08:30;3.40;;;2.13;;
25497;SDS011;13406;53.380;7.226;2023-04-03T12:13:38;4.40;;;1.20;;
25497;SDS011;13406;53.380;7.226;2023-04-03T12:16:04;1.97;;;0.93;;
25497;SDS011;13406;53.380;7.226;2023-04-03T12:18:41;1.13;;;0.70;;
25497;SDS011;13406;53.380;7.226;2023-04-03T12:21:07;2.23;;;1.30;;
25497;SDS011;13406;53.380;7.226;2023-04-03T12:23:33;2.13;;;1.07;;
25497;SDS011;13406;53.380;7.226;2023-04-03T12:26:18;2.53;;;0.80;;
25497;SDS011;13406;53.380;7.226;2023-04-03T12:28:44;1.60;;;0.70;;
25497;SDS011;13406;53.380;7.226;2023-04-03T12:31:11;1.20;;;0.77;;
25497;SDS011;13406;53.380;7.226;2023-04-03T12:33:40;1.43;;;0.80;;
25497;SDS011;13406;53.380;7.226;2023-04-03T12:36:11;2.53;;;1.00;;
25497;SDS011;13406;53.380;7.226;2023-04-03T12:38:58;1.60;;;0.80;;
25497;SDS011;13406;53.380;7.226;2023-04-03T12:42:01;2.13;;;1.00;;
25497;SDS011;13406;53.380;7.226;2023-04-03T12:46:43;1.90;;;0.80;;
25497;SDS011;13406;53.380;7.226;2023-04-03T12:49:52;1.13;;;0.70;;
25497;SDS011;13406;53.380;7.226;2023-04-03T12:51:58;3.40;;;0.90;;
25497;SDS011;13406;53.380;7.226;2023-04-03T12:54:37;2.40;;;1.37;;
25497;SDS011;13406;53.380;7.226;2023-04-03T12:59:36;2.53;;;1.27;;
25497;SDS011;13406;53.380;7.226;2023-04-03T13:02:01;2.90;;;0.83;;
25497;SDS011;13406;53.380;7.226;2023-04-03T13:04:27;1.60;;;0.80;;
25497;SDS011;13406;53.380;7.226;2023-04-03T13:06:53;2.10;;;0.80;;
25497;SDS011;13406;53.380;7.226;2023-04-03T13:09:23;1.87;;;0.90;;
25497;SDS011;13406;53.380;7.226;2023-04-03T13:11:49;2.20;;;0.80;;
25497;SDS011;13406;53.380;7.226;2023-04-03T13:14:17;1.67;;;0.83;;
25497;SDS011;13406;53.380;7.226;2023-04-03T13:16:51;1.57;;;0.90;;
25497;SDS011;13406;53.380;7.226;2023-04-03T13:19:17;4.47;;;1.10;;
25497;SDS011;13406;53.380;7.226;2023-04-03T13:21:42;1.57;;;1.00;;
25497;SDS011;13406;53.380;7.226;2023-04-03T13:24:09;2.13;;;1.20;;
25497;SDS011;13406;53.380;7.226;2023-04-03T13:26:34;3.43;;;0.90;;
25497;SDS011;13406;53.380;7.226;2023-04-03T13:29:04;1.90;;;1.10;;
25497;SDS011;13406;53.380;7.226;2023-04-03T13:31:32;9.60;;;1.90;;
25497;SDS011;13406;53.380;7.226;2023-04-03T13:36:29;1.90;;;0.83;;
25497;SDS011;13406;53.380;7.226;2023-04-03T13:39:03;2.63;;;1.00;;
25497;SDS011;13406;53.380;7.226;2023-04-03T13:41:48;0.70;;;0.60;;
25497;SDS011;13406;53.380;7.226;2023-04-03T13:44:22;0.97;;;0.80;;
25497;SDS011;13406;53.380;7.226;2023-04-03T13:46:51;2.20;;;0.80;;
25497;SDS011;13406;53.380;7.226;2023-04-03T13:49:21;2.50;;;0.90;;
25497;SDS011;13406;53.380;7.226;2023-04-03T13:51:47;1.77;;;0.60;;
25497;SDS011;13406;53.380;7.226;2023-04-03T13:54:22;3.43;;;0.70;;
25497;SDS011;13406;53.380;7.226;2023-04-03T13:56:52;2.20;;;0.80;;
25497;SDS011;13406;53.380;7.226;2023-04-03T14:01:48;2.50;;;0.70;;
25497;SDS011;13406;53.380;7.226;2023-04-03T14:04:19;2.10;;;0.70;;
25497;SDS011;13406;53.380;7.226;2023-04-03T14:06:45;1.10;;;0.70;;
25497;SDS011;13406;53.380;7.226;2023-04-03T14:09:11;3.80;;;0.80;;
25497;SDS011;13406;53.380;7.226;2023-04-03T14:11:36;1.33;;;0.90;;
25497;SDS011;13406;53.380;7.226;2023-04-03T14:14:05;1.47;;;0.80;;
25497;SDS011;13406;53.380;7.226;2023-04-03T14:16:31;2.10;;;0.77;;
25497;SDS011;13406;53.380;7.226;2023-04-03T14:18:57;3.10;;;0.83;;
25497;SDS011;13406;53.380;7.226;2023-04-03T14:21:22;1.00;;;0.80;;
25497;SDS011;13406;53.380;7.226;2023-04-03T14:23:48;2.50;;;0.77;;
25497;SDS011;13406;53.380;7.226;2023-04-03T14:26:18;0.80;;;0.70;;
25497;SDS011;13406;53.380;7.226;2023-04-03T14:28:48;1.60;;;0.80;;
25497;SDS011;13406;53.380;7.226;2023-04-03T14:31:14;1.70;;;1.10;;
25497;SDS011;13406;53.380;7.226;2023-04-03T14:33:41;1.77;;;0.93;;
25497;SDS011;13406;53.380;7.226;2023-04-03T14:36:23;1.33;;;0.87;;
25497;SDS011;13406;53.380;7.226;2023-04-03T14:38:50;1.10;;;0.80;;
25497;SDS011;13406;53.380;7.226;2023-04-03T14:41:17;1.33;;;0.70;;
25497;SDS011;13406;53.380;7.226;2023-04-03T14:43:43;1.00;;;0.80;;
25497;SDS011;13406;53.380;7.226;2023-04-03T14:46:13;2.60;;;0.97;;
25497;SDS011;13406;53.380;7.226;2023-04-03T14:48:39;1.40;;;0.80;;
25497;SDS011;13406;53.380;7.226;2023-04-03T14:51:04;1.53;;;0.80;;
25497;SDS011;13406;53.380;7.226;2023-04-03T14:53:29;1.80;;;0.80;;
25497;SDS011;13406;53.380;7.226;2023-04-03T14:55:57;1.67;;;0.87;;
25497;SDS011;13406;53.380;7.226;2023-04-03T14:58:23;1.40;;;0.87;;
25497;SDS011;13406;53.380;7.226;2023-04-03T15:00:48;1.60;;;0.80;;
25497;SDS011;13406;53.380;7.226;2023-04-03T15:03:18;1.20;;;0.80;;
25497;SDS011;13406;53.380;7.226;2023-04-03T15:05:44;2.07;;;0.97;;
25497;SDS011;13406;53.380;7.226;2023-04-03T15:08:17;1.67;;;0.87;;
25497;SDS011;13406;53.380;7.226;2023-04-03T15:10:43;2.00;;;0.80;;
25497;SDS011;13406;53.380;7.226;2023-04-03T15:13:09;3.10;;;0.93;;
25497;SDS011;13406;53.380;7.226;2023-04-03T15:15:36;2.40;;;1.10;;
25497;SDS011;13406;53.380;7.226;2023-04-03T15:18:02;2.27;;;0.97;;
25497;SDS011;13406;53.380;7.226;2023-04-03T15:20:28;1.57;;;0.80;;
25497;SDS011;13406;53.380;7.226;2023-04-03T15:22:55;1.80;;;0.87;;
25497;SDS011;13406;53.380;7.226;2023-04-03T15:25:26;1.50;;;0.70;;
25497;SDS011;13406;53.380;7.226;2023-04-03T15:27:52;1.33;;;0.70;;
25497;SDS011;13406;53.380;7.226;2023-04-03T15:30:18;3.10;;;1.10;;
25497;SDS011;13406;53.380;7.226;2023-04-03T15:32:43;2.23;;;0.77;;
25497;SDS011;13406;53.380;7.226;2023-04-03T15:35:09;3.40;;;0.90;;
25497;SDS011;13406;53.380;7.226;2023-04-03T15:37:34;2.47;;;0.80;;
25497;SDS011;13406;53.380;7.226;2023-04-03T15:40:00;2.10;;;0.77;;
25497;SDS011;13406;53.380;7.226;2023-04-03T15:42:25;1.57;;;0.80;;
25497;SDS011;13406;53.380;7.226;2023-04-03T15:44:51;2.60;;;0.97;;
25497;SDS011;13406;53.380;7.226;2023-04-03T15:47:16;2.27;;;0.97;;
25497;SDS011;13406;53.380;7.226;2023-04-03T15:49:41;3.67;;;0.80;;
25497;SDS011;13406;53.380;7.226;2023-04-03T15:52:07;1.37;;;0.70;;
25497;SDS011;13406;53.380;7.226;2023-04-03T15:54:32;3.53;;;0.63;;
25497;SDS011;13406;53.380;7.226;2023-04-03T15:56:57;3.17;;;1.00;;
25497;SDS011;13406;53.380;7.226;2023-04-03T15:59:23;1.00;;;0.70;;
25497;SDS011;13406;53.380;7.226;2023-04-03T16:01:48;1.20;;;0.70;;
25497;SDS011;13406;53.380;7.226;2023-04-03T16:04:15;2.63;;;0.80;;
25497;SDS011;13406;53.380;7.226;2023-04-03T16:06:41;2.93;;;0.70;;
25497;SDS011;13406;53.380;7.226;2023-04-03T16:09:06;3.03;;;1.00;;